sensor_id;sensor_type;location;lat;lon;timestamp;P1;durP1;ratioP1;P2;durP2;ratioP2
20411;SDS011;10365;52.578;8.138;2022-07-04T00:01:12;8.68;;;6.28;;
20411;SDS011;10365;52.578;8.138;2022-07-04T00:03:38;6.22;;;5.05;;
20411;SDS011;10365;52.578;8.138;2022-07-04T00:06:03;7.88;;;5.80;;
20411;SDS011;10365;52.578;8.138;2022-07-04T00:08:30;7.85;;;5.15;;
20411;SDS011;10365;52.578;8.138;2022-07-04T00:10:55;6.25;;;4.88;;
20411;SDS011;10365;52.578;8.138;2022-07-04T00:13:20;6.68;;;5.20;;
20411;SDS011;10365;52.578;8.138;2022-07-04T00:15:46;7.18;;;6.20;;
20411;SDS011;10365;52.578;8.138;2022-07-04T00:18:11;7.40;;;5.45;;
20411;SDS011;10365;52.578;8.138;2022-07-04T00:20:37;8.50;;;5.53;;
20411;SDS011;10365;52.578;8.138;2022-07-04T00:23:02;6.72;;;5.25;;
20411;SDS011;10365;52.578;8.138;2022-07-04T00:25:28;7.53;;;5.10;;
20411;SDS011;10365;52.578;8.138;2022-07-04T00:27:53;7.05;;;5.25;;
20411;SDS011;10365;52.578;8.138;2022-07-04T00:30:18;6.25;;;5.43;;
20411;SDS011;10365;52.578;8.138;2022-07-04T00:32:44;7.13;;;6.15;;
20411;SDS011;10365;52.578;8.138;2022-07-04T00:35:09;7.28;;;5.63;;
20411;SDS011;10365;52.578;8.138;2022-07-04T00:37:35;7.30;;;6.07;;
20411;SDS011;10365;52.578;8.138;2022-07-04T00:40:00;9.32;;;5.80;;
20411;SDS011;10365;52.578;8.138;2022-07-04T00:42:26;6.20;;;5.60;;
20411;SDS011;10365;52.578;8.138;2022-07-04T00:44:51;10.25;;;6.35;;
20411;SDS011;10365;52.578;8.138;2022-07-04T00:47:17;8.07;;;5.80;;
20411;SDS011;10365;52.578;8.138;2022-07-04T00:49:42;9.02;;;6.13;;
20411;SDS011;10365;52.578;8.138;2022-07-04T00:52:08;7.03;;;6.30;;
20411;SDS011;10365;52.578;8.138;2022-07-04T00:54:33;8.95;;;6.72;;
20411;SDS011;10365;52.578;8.138;2022-07-04T00:57:00;8.20;;;7.00;;
20411;SDS011;10365;52.578;8.138;2022-07-04T00:59:25;8.93;;;6.70;;
20411;SDS011;10365;52.578;8.138;2022-07-04T01:01:51;8.05;;;6.93;;
20411;SDS011;10365;52.578;8.138;2022-07-04T01:04:16;10.18;;;7.82;;
20411;SDS011;10365;52.578;8.138;2022-07-04T01:06:42;11.27;;;7.60;;
20411;SDS011;10365;52.578;8.138;2022-07-04T01:09:08;8.15;;;6.72;;
20411;SDS011;10365;52.578;8.138;2022-07-04T01:11:33;12.70;;;7.63;;
20411;SDS011;10365;52.578;8.138;2022-07-04T01:13:59;8.52;;;6.57;;
20411;SDS011;10365;52.578;8.138;2022-07-04T01:16:25;11.20;;;7.55;;
20411;SDS011;10365;52.578;8.138;2022-07-04T01:18:50;10.98;;;7.82;;
20411;SDS011;10365;52.578;8.138;2022-07-04T01:21:17;10.05;;;7.43;;
20411;SDS011;10365;52.578;8.138;2022-07-04T01:23:43;10.18;;;7.60;;
20411;SDS011;10365;52.578;8.138;2022-07-04T01:26:08;10.27;;;8.27;;
20411;SDS011;10365;52.578;8.138;2022-07-04T01:28:33;8.88;;;7.15;;
20411;SDS011;10365;52.578;8.138;2022-07-04T01:30:59;13.57;;;7.70;;
20411;SDS011;10365;52.578;8.138;2022-07-04T01:33:24;9.00;;;7.55;;
20411;SDS011;10365;52.578;8.138;2022-07-04T01:35:50;12.20;;;7.97;;
20411;SDS011;10365;52.578;8.138;2022-07-04T01:38:15;11.25;;;8.32;;
20411;SDS011;10365;52.578;8.138;2022-07-04T01:40:41;10.95;;;8.00;;
20411;SDS011;10365;52.578;8.138;2022-07-04T01:43:06;11.60;;;8.15;;
20411;SDS011;10365;52.578;8.138;2022-07-04T01:45:32;10.90;;;7.70;;
20411;SDS011;10365;52.578;8.138;2022-07-04T01:48:06;8.88;;;7.40;;
20411;SDS011;10365;52.578;8.138;2022-07-04T01:50:31;11.85;;;8.02;;
20411;SDS011;10365;52.578;8.138;2022-07-04T01:52:56;11.02;;;8.38;;
20411;SDS011;10365;52.578;8.138;2022-07-04T01:55:22;10.55;;;7.85;;
20411;SDS011;10365;52.578;8.138;2022-07-04T01:57:47;10.57;;;7.72;;
20411;SDS011;10365;52.578;8.138;2022-07-04T02:00:13;10.82;;;8.15;;
20411;SDS011;10365;52.578;8.138;2022-07-04T02:02:57;13.82;;;9.82;;
20411;SDS011;10365;52.578;8.138;2022-07-04T02:05:22;13.80;;;9.75;;
20411;SDS011;10365;52.578;8.138;2022-07-04T02:07:48;14.27;;;10.38;;
20411;SDS011;10365;52.578;8.138;2022-07-04T02:10:13;14.07;;;9.38;;
20411;SDS011;10365;52.578;8.138;2022-07-04T02:12:39;13.48;;;10.10;;
20411;SDS011;10365;52.578;8.138;2022-07-04T02:15:23;15.10;;;10.10;;
20411;SDS011;10365;52.578;8.138;2022-07-04T02:17:48;13.00;;;10.18;;
20411;SDS011;10365;52.578;8.138;2022-07-04T02:20:14;14.15;;;10.40;;
20411;SDS011;10365;52.578;8.138;2022-07-04T02:22:39;13.65;;;10.23;;
20411;SDS011;10365;52.578;8.138;2022-07-04T02:25:05;15.35;;;11.10;;
20411;SDS011;10365;52.578;8.138;2022-07-04T02:27:31;14.40;;;10.55;;
20411;SDS011;10365;52.578;8.138;2022-07-04T02:29:56;15.43;;;10.95;;
20411;SDS011;10365;52.578;8.138;2022-07-04T02:32:21;16.40;;;11.43;;
20411;SDS011;10365;52.578;8.138;2022-07-04T02:34:47;15.40;;;10.75;;
20411;SDS011;10365;52.578;8.138;2022-07-04T02:37:12;16.70;;;10.60;;
20411;SDS011;10365;52.578;8.138;2022-07-04T02:39:37;17.08;;;11.98;;
20411;SDS011;10365;52.578;8.138;2022-07-04T02:42:03;16.33;;;10.82;;
20411;SDS011;10365;52.578;8.138;2022-07-04T02:44:28;15.63;;;10.88;;
20411;SDS011;10365;52.578;8.138;2022-07-04T02:46:55;16.30;;;10.80;;
20411;SDS011;10365;52.578;8.138;2022-07-04T02:49:21;19.35;;;11.60;;
20411;SDS011;10365;52.578;8.138;2022-07-04T02:51:46;18.52;;;11.52;;
20411;SDS011;10365;52.578;8.138;2022-07-04T02:54:12;18.50;;;12.00;;
20411;SDS011;10365;52.578;8.138;2022-07-04T02:56:37;18.80;;;11.25;;
20411;SDS011;10365;52.578;8.138;2022-07-04T02:59:02;19.45;;;11.05;;
20411;SDS011;10365;52.578;8.138;2022-07-04T03:01:28;21.38;;;12.35;;
20411;SDS011;10365;52.578;8.138;2022-07-04T03:03:53;17.23;;;11.55;;
20411;SDS011;10365;52.578;8.138;2022-07-04T03:06:19;19.25;;;12.13;;
20411;SDS011;10365;52.578;8.138;2022-07-04T03:08:44;22.08;;;12.32;;
20411;SDS011;10365;52.578;8.138;2022-07-04T03:11:09;17.98;;;12.27;;
20411;SDS011;10365;52.578;8.138;2022-07-04T03:13:35;16.23;;;11.93;;
20411;SDS011;10365;52.578;8.138;2022-07-04T03:16:01;17.40;;;11.98;;
20411;SDS011;10365;52.578;8.138;2022-07-04T03:18:26;17.17;;;11.10;;
20411;SDS011;10365;52.578;8.138;2022-07-04T03:20:51;15.60;;;11.95;;
20411;SDS011;10365;52.578;8.138;2022-07-04T03:23:17;16.92;;;11.45;;
20411;SDS011;10365;52.578;8.138;2022-07-04T03:25:42;18.20;;;10.73;;
20411;SDS011;10365;52.578;8.138;2022-07-04T03:28:08;16.58;;;11.68;;
20411;SDS011;10365;52.578;8.138;2022-07-04T03:30:34;16.88;;;11.73;;
20411;SDS011;10365;52.578;8.138;2022-07-04T03:32:59;20.02;;;12.32;;
20411;SDS011;10365;52.578;8.138;2022-07-04T03:35:25;18.58;;;12.23;;
20411;SDS011;10365;52.578;8.138;2022-07-04T03:37:50;19.08;;;13.98;;
20411;SDS011;10365;52.578;8.138;2022-07-04T03:40:16;21.00;;;13.60;;
20411;SDS011;10365;52.578;8.138;2022-07-04T03:42:42;21.50;;;14.20;;
20411;SDS011;10365;52.578;8.138;2022-07-04T03:45:08;19.65;;;13.90;;
20411;SDS011;10365;52.578;8.138;2022-07-04T03:47:33;23.00;;;14.95;;
20411;SDS011;10365;52.578;8.138;2022-07-04T03:49:59;23.48;;;15.13;;
20411;SDS011;10365;52.578;8.138;2022-07-04T03:52:24;27.63;;;15.80;;
20411;SDS011;10365;52.578;8.138;2022-07-04T03:54:50;25.40;;;16.50;;
20411;SDS011;10365;52.578;8.138;2022-07-04T03:57:16;26.40;;;15.85;;
20411;SDS011;10365;52.578;8.138;2022-07-04T03:59:41;23.02;;;15.63;;
20411;SDS011;10365;52.578;8.138;2022-07-04T04:02:07;24.65;;;15.75;;
20411;SDS011;10365;52.578;8.138;2022-07-04T04:04:32;25.58;;;15.55;;
20411;SDS011;10365;52.578;8.138;2022-07-04T04:07:33;23.45;;;15.13;;
20411;SDS011;10365;52.578;8.138;2022-07-04T04:09:58;24.27;;;15.63;;
20411;SDS011;10365;52.578;8.138;2022-07-04T04:12:23;23.98;;;15.90;;
20411;SDS011;10365;52.578;8.138;2022-07-04T04:14:49;23.23;;;14.88;;
20411;SDS011;10365;52.578;8.138;2022-07-04T04:17:14;25.80;;;16.35;;
20411;SDS011;10365;52.578;8.138;2022-07-04T04:19:40;28.58;;;16.75;;
20411;SDS011;10365;52.578;8.138;2022-07-04T04:22:05;26.23;;;15.88;;
20411;SDS011;10365;52.578;8.138;2022-07-04T04:24:30;25.42;;;16.65;;
20411;SDS011;10365;52.578;8.138;2022-07-04T04:26:56;23.65;;;14.68;;
20411;SDS011;10365;52.578;8.138;2022-07-04T04:29:21;22.75;;;15.10;;
20411;SDS011;10365;52.578;8.138;2022-07-04T04:31:47;27.77;;;16.42;;
20411;SDS011;10365;52.578;8.138;2022-07-04T04:34:12;20.98;;;14.27;;
20411;SDS011;10365;52.578;8.138;2022-07-04T04:36:38;21.55;;;14.13;;
20411;SDS011;10365;52.578;8.138;2022-07-04T04:39:03;17.55;;;12.30;;
20411;SDS011;10365;52.578;8.138;2022-07-04T04:41:29;13.40;;;9.43;;
20411;SDS011;10365;52.578;8.138;2022-07-04T04:43:55;10.02;;;7.70;;
20411;SDS011;10365;52.578;8.138;2022-07-04T04:46:20;16.20;;;7.35;;
20411;SDS011;10365;52.578;8.138;2022-07-04T04:48:46;9.55;;;6.50;;
20411;SDS011;10365;52.578;8.138;2022-07-04T04:51:12;9.35;;;6.00;;
20411;SDS011;10365;52.578;8.138;2022-07-04T04:53:38;5.40;;;4.68;;
20411;SDS011;10365;52.578;8.138;2022-07-04T04:56:03;7.13;;;4.30;;
20411;SDS011;10365;52.578;8.138;2022-07-04T04:58:28;7.43;;;4.68;;
20411;SDS011;10365;52.578;8.138;2022-07-04T05:00:54;7.55;;;4.10;;
20411;SDS011;10365;52.578;8.138;2022-07-04T05:03:19;7.75;;;3.95;;
20411;SDS011;10365;52.578;8.138;2022-07-04T05:05:45;6.00;;;4.10;;
20411;SDS011;10365;52.578;8.138;2022-07-04T05:08:10;7.80;;;4.20;;
20411;SDS011;10365;52.578;8.138;2022-07-04T05:10:38;5.95;;;3.95;;
20411;SDS011;10365;52.578;8.138;2022-07-04T05:13:03;7.85;;;4.10;;
20411;SDS011;10365;52.578;8.138;2022-07-04T05:15:29;7.15;;;4.03;;
20411;SDS011;10365;52.578;8.138;2022-07-04T05:17:54;7.22;;;3.08;;
20411;SDS011;10365;52.578;8.138;2022-07-04T05:20:20;6.32;;;3.67;;
20411;SDS011;10365;52.578;8.138;2022-07-04T05:22:45;5.43;;;3.65;;
20411;SDS011;10365;52.578;8.138;2022-07-04T05:25:10;8.48;;;4.25;;
20411;SDS011;10365;52.578;8.138;2022-07-04T05:27:36;4.80;;;2.80;;
20411;SDS011;10365;52.578;8.138;2022-07-04T05:30:03;4.03;;;3.13;;
20411;SDS011;10365;52.578;8.138;2022-07-04T05:32:29;8.07;;;4.60;;
20411;SDS011;10365;52.578;8.138;2022-07-04T05:34:54;7.97;;;3.67;;
20411;SDS011;10365;52.578;8.138;2022-07-04T05:37:20;7.72;;;3.28;;
20411;SDS011;10365;52.578;8.138;2022-07-04T05:39:45;6.82;;;3.97;;
20411;SDS011;10365;52.578;8.138;2022-07-04T05:42:11;7.40;;;4.05;;
20411;SDS011;10365;52.578;8.138;2022-07-04T05:44:37;6.05;;;3.63;;
20411;SDS011;10365;52.578;8.138;2022-07-04T05:47:03;8.15;;;4.10;;
20411;SDS011;10365;52.578;8.138;2022-07-04T05:49:28;6.80;;;4.03;;
20411;SDS011;10365;52.578;8.138;2022-07-04T05:51:54;8.70;;;3.80;;
20411;SDS011;10365;52.578;8.138;2022-07-04T05:54:19;6.28;;;3.65;;
20411;SDS011;10365;52.578;8.138;2022-07-04T05:56:45;8.20;;;3.72;;
20411;SDS011;10365;52.578;8.138;2022-07-04T05:59:10;7.90;;;3.72;;
20411;SDS011;10365;52.578;8.138;2022-07-04T06:01:36;7.47;;;3.33;;
20411;SDS011;10365;52.578;8.138;2022-07-04T06:04:03;6.28;;;3.60;;
20411;SDS011;10365;52.578;8.138;2022-07-04T06:06:28;9.73;;;3.53;;
20411;SDS011;10365;52.578;8.138;2022-07-04T06:08:55;5.35;;;2.78;;
20411;SDS011;10365;52.578;8.138;2022-07-04T06:11:20;5.82;;;3.60;;
20411;SDS011;10365;52.578;8.138;2022-07-04T06:13:47;5.45;;;3.28;;
20411;SDS011;10365;52.578;8.138;2022-07-04T06:16:12;9.23;;;3.90;;
20411;SDS011;10365;52.578;8.138;2022-07-04T06:18:37;5.95;;;3.90;;
20411;SDS011;10365;52.578;8.138;2022-07-04T06:21:03;7.90;;;3.13;;
20411;SDS011;10365;52.578;8.138;2022-07-04T06:23:28;4.97;;;2.65;;
20411;SDS011;10365;52.578;8.138;2022-07-04T06:25:53;5.25;;;2.75;;
20411;SDS011;10365;52.578;8.138;2022-07-04T06:28:19;3.70;;;2.00;;
20411;SDS011;10365;52.578;8.138;2022-07-04T06:30:44;4.43;;;1.23;;
20411;SDS011;10365;52.578;8.138;2022-07-04T06:33:10;2.85;;;1.40;;
20411;SDS011;10365;52.578;8.138;2022-07-04T06:35:36;3.88;;;1.70;;
20411;SDS011;10365;52.578;8.138;2022-07-04T06:38:11;2.92;;;1.40;;
20411;SDS011;10365;52.578;8.138;2022-07-04T06:40:37;3.97;;;1.77;;
20411;SDS011;10365;52.578;8.138;2022-07-04T06:43:03;3.42;;;1.77;;
20411;SDS011;10365;52.578;8.138;2022-07-04T06:45:29;4.90;;;2.60;;
20411;SDS011;10365;52.578;8.138;2022-07-04T06:47:55;4.00;;;2.15;;
20411;SDS011;10365;52.578;8.138;2022-07-04T06:50:20;6.85;;;2.85;;
20411;SDS011;10365;52.578;8.138;2022-07-04T06:52:45;6.15;;;2.50;;
20411;SDS011;10365;52.578;8.138;2022-07-04T06:55:11;4.45;;;1.55;;
20411;SDS011;10365;52.578;8.138;2022-07-04T06:57:37;4.80;;;1.63;;
20411;SDS011;10365;52.578;8.138;2022-07-04T07:00:05;6.40;;;1.65;;
20411;SDS011;10365;52.578;8.138;2022-07-04T07:02:33;4.78;;;1.80;;
20411;SDS011;10365;52.578;8.138;2022-07-04T07:04:58;3.85;;;2.10;;
20411;SDS011;10365;52.578;8.138;2022-07-04T07:07:23;2.75;;;1.42;;
20411;SDS011;10365;52.578;8.138;2022-07-04T07:09:50;3.80;;;1.60;;
20411;SDS011;10365;52.578;8.138;2022-07-04T07:12:15;2.83;;;1.30;;
20411;SDS011;10365;52.578;8.138;2022-07-04T07:14:41;3.90;;;1.40;;
20411;SDS011;10365;52.578;8.138;2022-07-04T07:17:06;3.63;;;1.00;;
20411;SDS011;10365;52.578;8.138;2022-07-04T07:19:33;3.65;;;0.90;;
20411;SDS011;10365;52.578;8.138;2022-07-04T07:21:58;4.97;;;1.08;;
20411;SDS011;10365;52.578;8.138;2022-07-04T07:24:24;2.17;;;1.05;;
20411;SDS011;10365;52.578;8.138;2022-07-04T07:26:51;5.00;;;1.30;;
20411;SDS011;10365;52.578;8.138;2022-07-04T07:29:16;2.45;;;1.27;;
20411;SDS011;10365;52.578;8.138;2022-07-04T07:31:41;3.33;;;1.42;;
20411;SDS011;10365;52.578;8.138;2022-07-04T07:34:07;2.80;;;0.80;;
20411;SDS011;10365;52.578;8.138;2022-07-04T07:36:32;3.38;;;1.02;;
20411;SDS011;10365;52.578;8.138;2022-07-04T07:38:58;3.13;;;0.80;;
20411;SDS011;10365;52.578;8.138;2022-07-04T07:41:23;4.28;;;0.93;;
20411;SDS011;10365;52.578;8.138;2022-07-04T07:43:48;5.38;;;1.17;;
20411;SDS011;10365;52.578;8.138;2022-07-04T07:46:14;3.20;;;1.00;;
20411;SDS011;10365;52.578;8.138;2022-07-04T07:48:39;3.47;;;1.38;;
20411;SDS011;10365;52.578;8.138;2022-07-04T07:51:05;4.80;;;1.20;;
20411;SDS011;10365;52.578;8.138;2022-07-04T07:53:30;2.88;;;0.93;;
20411;SDS011;10365;52.578;8.138;2022-07-04T07:55:56;3.35;;;0.80;;
20411;SDS011;10365;52.578;8.138;2022-07-04T07:58:21;4.88;;;1.20;;
20411;SDS011;10365;52.578;8.138;2022-07-04T08:00:46;3.35;;;1.08;;
20411;SDS011;10365;52.578;8.138;2022-07-04T08:03:12;4.15;;;1.17;;
20411;SDS011;10365;52.578;8.138;2022-07-04T08:05:56;5.32;;;0.93;;
20411;SDS011;10365;52.578;8.138;2022-07-04T08:08:21;4.03;;;0.90;;
20411;SDS011;10365;52.578;8.138;2022-07-04T08:10:48;5.40;;;0.90;;
20411;SDS011;10365;52.578;8.138;2022-07-04T08:13:14;3.75;;;0.85;;
20411;SDS011;10365;52.578;8.138;2022-07-04T08:15:39;3.30;;;0.88;;
20411;SDS011;10365;52.578;8.138;2022-07-04T08:18:05;2.72;;;0.40;;
20411;SDS011;10365;52.578;8.138;2022-07-04T08:20:30;2.03;;;0.55;;
20411;SDS011;10365;52.578;8.138;2022-07-04T08:22:56;1.85;;;0.68;;
20411;SDS011;10365;52.578;8.138;2022-07-04T08:25:21;5.32;;;0.77;;
20411;SDS011;10365;52.578;8.138;2022-07-04T08:27:46;4.18;;;0.95;;
20411;SDS011;10365;52.578;8.138;2022-07-04T08:30:12;5.35;;;0.80;;
20411;SDS011;10365;52.578;8.138;2022-07-04T08:32:37;6.32;;;0.73;;
20411;SDS011;10365;52.578;8.138;2022-07-04T08:35:03;4.75;;;0.77;;
20411;SDS011;10365;52.578;8.138;2022-07-04T08:37:29;5.15;;;0.65;;
20411;SDS011;10365;52.578;8.138;2022-07-04T08:39:54;1.45;;;0.50;;
20411;SDS011;10365;52.578;8.138;2022-07-04T08:42:20;1.98;;;0.70;;
20411;SDS011;10365;52.578;8.138;2022-07-04T08:44:47;2.35;;;0.70;;
20411;SDS011;10365;52.578;8.138;2022-07-04T08:47:16;1.98;;;0.50;;
20411;SDS011;10365;52.578;8.138;2022-07-04T08:49:43;3.28;;;0.77;;
20411;SDS011;10365;52.578;8.138;2022-07-04T08:52:11;4.00;;;0.73;;
20411;SDS011;10365;52.578;8.138;2022-07-04T08:54:37;2.20;;;0.70;;
20411;SDS011;10365;52.578;8.138;2022-07-04T08:57:22;2.03;;;0.60;;
20411;SDS011;10365;52.578;8.138;2022-07-04T09:00:06;2.25;;;0.77;;
20411;SDS011;10365;52.578;8.138;2022-07-04T09:02:32;1.38;;;0.60;;
20411;SDS011;10365;52.578;8.138;2022-07-04T09:04:58;1.15;;;0.50;;
20411;SDS011;10365;52.578;8.138;2022-07-04T09:07:24;1.33;;;0.52;;
20411;SDS011;10365;52.578;8.138;2022-07-04T09:09:51;3.83;;;0.73;;
20411;SDS011;10365;52.578;8.138;2022-07-04T09:12:17;2.28;;;0.60;;
20411;SDS011;10365;52.578;8.138;2022-07-04T09:14:42;2.53;;;0.80;;
20411;SDS011;10365;52.578;8.138;2022-07-04T09:17:08;4.32;;;0.90;;
20411;SDS011;10365;52.578;8.138;2022-07-04T09:19:34;3.08;;;0.63;;
20411;SDS011;10365;52.578;8.138;2022-07-04T09:22:08;2.30;;;0.60;;
20411;SDS011;10365;52.578;8.138;2022-07-04T09:27:11;2.85;;;0.60;;
20411;SDS011;10365;52.578;8.138;2022-07-04T09:29:39;3.28;;;0.90;;
20411;SDS011;10365;52.578;8.138;2022-07-04T09:32:23;5.18;;;0.70;;
20411;SDS011;10365;52.578;8.138;2022-07-04T09:34:54;9.32;;;0.77;;
20411;SDS011;10365;52.578;8.138;2022-07-04T09:37:20;3.13;;;0.65;;
20411;SDS011;10365;52.578;8.138;2022-07-04T09:39:45;1.17;;;0.60;;
20411;SDS011;10365;52.578;8.138;2022-07-04T09:42:11;2.17;;;0.60;;
20411;SDS011;10365;52.578;8.138;2022-07-04T09:44:43;1.08;;;0.50;;
20411;SDS011;10365;52.578;8.138;2022-07-04T09:52:29;3.45;;;0.63;;
20411;SDS011;10365;52.578;8.138;2022-07-04T09:54:59;3.78;;;0.60;;
20411;SDS011;10365;52.578;8.138;2022-07-04T09:57:25;2.42;;;0.90;;
20411;SDS011;10365;52.578;8.138;2022-07-04T09:59:50;4.20;;;0.43;;
20411;SDS011;10365;52.578;8.138;2022-07-04T10:02:15;2.85;;;0.60;;
20411;SDS011;10365;52.578;8.138;2022-07-04T10:04:45;3.45;;;0.80;;
20411;SDS011;10365;52.578;8.138;2022-07-04T10:07:10;3.08;;;0.50;;
20411;SDS011;10365;52.578;8.138;2022-07-04T10:09:36;1.73;;;0.68;;
20411;SDS011;10365;52.578;8.138;2022-07-04T10:12:01;5.60;;;1.02;;
20411;SDS011;10365;52.578;8.138;2022-07-04T10:14:27;3.75;;;0.40;;
20411;SDS011;10365;52.578;8.138;2022-07-04T10:16:52;3.53;;;0.60;;
20411;SDS011;10365;52.578;8.138;2022-07-04T10:19:17;1.98;;;0.70;;
20411;SDS011;10365;52.578;8.138;2022-07-04T10:21:43;1.25;;;0.40;;
20411;SDS011;10365;52.578;8.138;2022-07-04T10:24:09;1.77;;;0.60;;
20411;SDS011;10365;52.578;8.138;2022-07-04T10:26:34;1.90;;;0.50;;
20411;SDS011;10365;52.578;8.138;2022-07-04T10:29:00;1.10;;;0.50;;
20411;SDS011;10365;52.578;8.138;2022-07-04T10:31:26;2.95;;;0.73;;
20411;SDS011;10365;52.578;8.138;2022-07-04T10:33:52;3.33;;;1.02;;
20411;SDS011;10365;52.578;8.138;2022-07-04T10:36:20;5.13;;;0.90;;
20411;SDS011;10365;52.578;8.138;2022-07-04T10:41:14;5.72;;;0.60;;
20411;SDS011;10365;52.578;8.138;2022-07-04T10:46:22;5.50;;;0.50;;
20411;SDS011;10365;52.578;8.138;2022-07-04T10:51:14;3.65;;;0.60;;
20411;SDS011;10365;52.578;8.138;2022-07-04T10:54:00;1.38;;;0.60;;
20411;SDS011;10365;52.578;8.138;2022-07-04T10:58:52;2.85;;;0.50;;
20411;SDS011;10365;52.578;8.138;2022-07-04T11:01:17;1.50;;;0.70;;
20411;SDS011;10365;52.578;8.138;2022-07-04T11:03:51;1.88;;;0.60;;
20411;SDS011;10365;52.578;8.138;2022-07-04T11:09:19;3.80;;;0.60;;
20411;SDS011;10365;52.578;8.138;2022-07-04T11:11:48;1.00;;;0.60;;
20411;SDS011;10365;52.578;8.138;2022-07-04T11:14:30;3.72;;;0.77;;
20411;SDS011;10365;52.578;8.138;2022-07-04T11:16:56;2.08;;;0.60;;
20411;SDS011;10365;52.578;8.138;2022-07-04T11:19:21;2.30;;;0.40;;
20411;SDS011;10365;52.578;8.138;2022-07-04T11:21:47;5.05;;;0.70;;
20411;SDS011;10365;52.578;8.138;2022-07-04T11:24:13;1.98;;;0.52;;
20411;SDS011;10365;52.578;8.138;2022-07-04T11:26:38;3.38;;;1.20;;
20411;SDS011;10365;52.578;8.138;2022-07-04T11:29:04;3.17;;;0.65;;
20411;SDS011;10365;52.578;8.138;2022-07-04T11:31:36;3.97;;;0.70;;
20411;SDS011;10365;52.578;8.138;2022-07-04T11:34:01;2.75;;;0.70;;
20411;SDS011;10365;52.578;8.138;2022-07-04T11:36:28;1.48;;;0.60;;
20411;SDS011;10365;52.578;8.138;2022-07-04T11:41:32;4.65;;;0.88;;
20411;SDS011;10365;52.578;8.138;2022-07-04T11:44:17;2.60;;;0.70;;
20411;SDS011;10365;52.578;8.138;2022-07-04T11:49:27;2.90;;;0.80;;
20411;SDS011;10365;52.578;8.138;2022-07-04T11:51:52;3.63;;;0.90;;
20411;SDS011;10365;52.578;8.138;2022-07-04T11:54:21;2.13;;;0.82;;
20411;SDS011;10365;52.578;8.138;2022-07-04T11:56:46;2.83;;;0.70;;
20411;SDS011;10365;52.578;8.138;2022-07-04T11:59:12;1.90;;;0.73;;
20411;SDS011;10365;52.578;8.138;2022-07-04T12:01:38;2.53;;;0.70;;
20411;SDS011;10365;52.578;8.138;2022-07-04T12:04:14;2.92;;;0.80;;
20411;SDS011;10365;52.578;8.138;2022-07-04T12:06:40;2.92;;;0.90;;
20411;SDS011;10365;52.578;8.138;2022-07-04T12:09:05;4.45;;;0.98;;
20411;SDS011;10365;52.578;8.138;2022-07-04T12:11:50;1.95;;;0.80;;
20411;SDS011;10365;52.578;8.138;2022-07-04T12:14:15;3.42;;;0.88;;
20411;SDS011;10365;52.578;8.138;2022-07-04T12:16:40;5.40;;;1.17;;
20411;SDS011;10365;52.578;8.138;2022-07-04T12:19:09;4.45;;;1.00;;
20411;SDS011;10365;52.578;8.138;2022-07-04T12:21:35;2.17;;;0.88;;
20411;SDS011;10365;52.578;8.138;2022-07-04T12:24:01;4.07;;;1.10;;
20411;SDS011;10365;52.578;8.138;2022-07-04T12:26:30;2.88;;;0.90;;
20411;SDS011;10365;52.578;8.138;2022-07-04T12:28:56;4.20;;;1.17;;
20411;SDS011;10365;52.578;8.138;2022-07-04T12:34:15;4.57;;;1.10;;
20411;SDS011;10365;52.578;8.138;2022-07-04T12:36:48;4.32;;;1.17;;
20411;SDS011;10365;52.578;8.138;2022-07-04T12:39:25;2.17;;;1.08;;
20411;SDS011;10365;52.578;8.138;2022-07-04T12:42:02;4.88;;;1.40;;
20411;SDS011;10365;52.578;8.138;2022-07-04T12:44:28;4.15;;;1.02;;
20411;SDS011;10365;52.578;8.138;2022-07-04T12:46:55;5.00;;;1.25;;
20411;SDS011;10365;52.578;8.138;2022-07-04T12:49:21;11.32;;;1.40;;
20411;SDS011;10365;52.578;8.138;2022-07-04T12:51:47;9.10;;;1.50;;
20411;SDS011;10365;52.578;8.138;2022-07-04T12:54:13;1.88;;;0.80;;
20411;SDS011;10365;52.578;8.138;2022-07-04T12:56:43;4.95;;;1.23;;
20411;SDS011;10365;52.578;8.138;2022-07-04T12:59:12;3.22;;;0.93;;
20411;SDS011;10365;52.578;8.138;2022-07-04T13:01:39;4.70;;;1.13;;
20411;SDS011;10365;52.578;8.138;2022-07-04T13:04:05;5.25;;;1.35;;
20411;SDS011;10365;52.578;8.138;2022-07-04T13:06:30;2.58;;;0.95;;
20411;SDS011;10365;52.578;8.138;2022-07-04T13:08:56;2.08;;;0.70;;
20411;SDS011;10365;52.578;8.138;2022-07-04T13:11:22;2.28;;;1.10;;
20411;SDS011;10365;52.578;8.138;2022-07-04T13:14:05;6.60;;;1.77;;
20411;SDS011;10365;52.578;8.138;2022-07-04T13:16:31;4.43;;;1.10;;
20411;SDS011;10365;52.578;8.138;2022-07-04T13:18:56;5.30;;;1.30;;
20411;SDS011;10365;52.578;8.138;2022-07-04T13:21:22;2.83;;;0.80;;
20411;SDS011;10365;52.578;8.138;2022-07-04T13:23:47;2.67;;;1.20;;
20411;SDS011;10365;52.578;8.138;2022-07-04T13:26:13;5.50;;;1.48;;
20411;SDS011;10365;52.578;8.138;2022-07-04T13:28:38;4.90;;;1.02;;
20411;SDS011;10365;52.578;8.138;2022-07-04T13:31:05;3.00;;;1.17;;
20411;SDS011;10365;52.578;8.138;2022-07-04T13:33:30;3.17;;;1.17;;
20411;SDS011;10365;52.578;8.138;2022-07-04T13:35:56;6.07;;;1.60;;
20411;SDS011;10365;52.578;8.138;2022-07-04T13:38:22;4.43;;;1.10;;
20411;SDS011;10365;52.578;8.138;2022-07-04T13:40:47;3.17;;;1.45;;
20411;SDS011;10365;52.578;8.138;2022-07-04T13:43:13;4.22;;;1.20;;
20411;SDS011;10365;52.578;8.138;2022-07-04T13:45:39;7.30;;;1.75;;
20411;SDS011;10365;52.578;8.138;2022-07-04T13:48:06;5.80;;;1.38;;
20411;SDS011;10365;52.578;8.138;2022-07-04T13:50:32;5.28;;;1.30;;
20411;SDS011;10365;52.578;8.138;2022-07-04T13:52:57;5.22;;;2.08;;
20411;SDS011;10365;52.578;8.138;2022-07-04T13:55:23;3.40;;;1.40;;
20411;SDS011;10365;52.578;8.138;2022-07-04T13:57:48;4.10;;;1.05;;
20411;SDS011;10365;52.578;8.138;2022-07-04T14:00:14;2.92;;;1.25;;
20411;SDS011;10365;52.578;8.138;2022-07-04T14:02:39;3.50;;;1.23;;
20411;SDS011;10365;52.578;8.138;2022-07-04T14:05:05;6.22;;;1.23;;
20411;SDS011;10365;52.578;8.138;2022-07-04T14:07:31;3.13;;;1.20;;
20411;SDS011;10365;52.578;8.138;2022-07-04T14:09:57;7.97;;;1.98;;
20411;SDS011;10365;52.578;8.138;2022-07-04T14:12:22;2.67;;;1.00;;
20411;SDS011;10365;52.578;8.138;2022-07-04T14:14:48;4.50;;;1.25;;
20411;SDS011;10365;52.578;8.138;2022-07-04T14:17:13;2.90;;;0.85;;
20411;SDS011;10365;52.578;8.138;2022-07-04T14:19:38;4.45;;;1.25;;
20411;SDS011;10365;52.578;8.138;2022-07-04T14:22:04;4.35;;;1.02;;
20411;SDS011;10365;52.578;8.138;2022-07-04T14:24:30;2.85;;;1.10;;
20411;SDS011;10365;52.578;8.138;2022-07-04T14:26:56;3.30;;;1.38;;
20411;SDS011;10365;52.578;8.138;2022-07-04T14:29:22;3.15;;;1.20;;
20411;SDS011;10365;52.578;8.138;2022-07-04T14:31:47;4.22;;;1.00;;
20411;SDS011;10365;52.578;8.138;2022-07-04T14:34:12;3.67;;;1.17;;
20411;SDS011;10365;52.578;8.138;2022-07-04T14:36:38;6.05;;;0.80;;
20411;SDS011;10365;52.578;8.138;2022-07-04T14:39:04;3.22;;;0.98;;
20411;SDS011;10365;52.578;8.138;2022-07-04T14:41:30;6.50;;;0.95;;
20411;SDS011;10365;52.578;8.138;2022-07-04T14:43:56;3.70;;;1.05;;
20411;SDS011;10365;52.578;8.138;2022-07-04T14:46:22;2.38;;;1.00;;
20411;SDS011;10365;52.578;8.138;2022-07-04T14:48:48;3.47;;;0.90;;
20411;SDS011;10365;52.578;8.138;2022-07-04T14:51:13;3.17;;;0.95;;
20411;SDS011;10365;52.578;8.138;2022-07-04T14:53:39;1.48;;;0.80;;
20411;SDS011;10365;52.578;8.138;2022-07-04T14:56:05;2.08;;;0.98;;
20411;SDS011;10365;52.578;8.138;2022-07-04T14:58:30;5.70;;;0.80;;
20411;SDS011;10365;52.578;8.138;2022-07-04T15:00:56;4.13;;;0.88;;
20411;SDS011;10365;52.578;8.138;2022-07-04T15:03:21;4.47;;;1.08;;
20411;SDS011;10365;52.578;8.138;2022-07-04T15:05:47;2.67;;;1.20;;
20411;SDS011;10365;52.578;8.138;2022-07-04T15:08:12;3.90;;;1.20;;